Time;durP1;ratioP1;P1;durP2;ratioP2;P2;SDS_P1;SDS_P2;PMS_P1;PMS_P2;Temp;Humidity;BMP_temperature;BMP_pressure;BME280_temperature;BME280_humidity;BME280_pressure;Samples;Min_cycle;Max_cycle;Signal;HPM_P1;HPM_P2
2023/07/14 00:00:26;;;;;;;;;;;18.00;62.30;;;;;;6275456;22;19903;-75
2023/07/14 00:02:53;;;;;;;;;;;17.90;62.40;;;;;;6275635;22;19992;-75
2023/07/14 00:05:20;;;;;;;;;;;17.80;62.60;;;;;;6275402;22;20349;-75
2023/07/14 00:07:47;;;;;;;;;;;17.80;62.80;;;;;;6275433;22;19903;-75
2023/07/14 00:10:14;;;;;;;;;;;17.80;63.10;;;;;;6275131;22;20317;-74
2023/07/14 00:12:39;;;;;;;;;;;17.90;63.40;;;;;;6275786;22;19931;-75
2023/07/14 00:15:05;;;;;;;;;;;17.90;63.60;;;;;;6275443;22;19903;-75
2023/07/14 00:17:31;;;;;;;;;;;17.90;63.60;;;;;;6275209;22;19910;-76
2023/07/14 00:19:56;;;;;;;;;;;17.90;63.80;;;;;;6248406;22;19904;-75
2023/07/14 00:22:22;;;;;;;;;;;17.90;63.60;;;;;;6275187;22;19914;-76
2023/07/14 00:24:47;;;;;;;;;;;17.90;63.60;;;;;;6275846;22;20223;-76
2023/07/14 00:27:20;;;;;;;;;;;18.00;63.50;;;;;;6275615;22;20317;-75
2023/07/14 00:29:45;;;;;;;;;;;17.90;63.60;;;;;;6275226;22;19911;-74
2023/07/14 00:32:11;;;;;;;;;;;17.90;63.60;;;;;;6275334;22;19907;-75
2023/07/14 00:34:36;;;;;;;;;;;18.00;63.50;;;;;;6275664;22;19911;-75
2023/07/14 00:37:01;;;;;;;;;;;17.90;63.40;;;;;;6275163;22;19903;-75
2023/07/14 00:39:27;;;;;;;;;;;17.90;63.30;;;;;;6275618;22;19911;-75
2023/07/14 00:41:53;;;;;;;;;;;17.90;63.10;;;;;;6274899;22;19915;-75
2023/07/14 00:44:19;;;;;;;;;;;17.80;63.00;;;;;;6274949;22;20293;-75
2023/07/14 00:46:45;;;;;;;;;;;17.80;63.00;;;;;;6275284;22;19903;-74
2023/07/14 00:49:20;;;;;;;;;;;17.80;62.80;;;;;;6275484;22;20365;-75
2023/07/14 00:51:45;;;;;;;;;;;17.80;62.80;;;;;;6275127;22;19903;-75
2023/07/14 00:54:28;;;;;;;;;;;17.70;62.90;;;;;;6248071;22;20275;-75
2023/07/14 00:56:54;;;;;;;;;;;17.70;62.90;;;;;;6274777;22;19911;-76
2023/07/14 00:59:20;;;;;;;;;;;17.60;63.00;;;;;;6275383;22;19912;-75
2023/07/14 01:02:04;;;;;;;;;;;17.60;62.90;;;;;;6275069;22;19990;-75
2023/07/14 01:04:30;;;;;;;;;;;17.60;62.70;;;;;;6275385;22;20002;-74
2023/07/14 01:06:55;;;;;;;;;;;17.50;62.80;;;;;;6274830;22;19930;-74
2023/07/14 01:09:21;;;;;;;;;;;17.50;62.80;;;;;;6275376;22;19911;-74
2023/07/14 01:11:52;;;;;;;;;;;17.50;62.90;;;;;;6275096;22;20329;-74
2023/07/14 01:14:26;;;;;;;;;;;17.40;63.00;;;;;;6275555;22;19934;-75
2023/07/14 01:16:53;;;;;;;;;;;17.40;63.00;;;;;;6274687;22;19982;-72
2023/07/14 01:19:40;;;;;;;;;;;17.40;63.00;;;;;;6275262;22;19981;-74
2023/07/14 01:22:20;;;;;;;;;;;17.40;63.10;;;;;;6274719;22;19939;-75
2023/07/14 01:24:57;;;;;;;;;;;17.30;63.20;;;;;;6275325;22;19919;-74
2023/07/14 01:27:24;;;;;;;;;;;17.30;63.20;;;;;;6247945;22;19903;-75
2023/07/14 01:29:51;;;;;;;;;;;17.20;63.20;;;;;;6275582;22;19915;-75
2023/07/14 01:32:17;;;;;;;;;;;17.20;63.20;;;;;;6274643;22;19904;-75
2023/07/14 01:34:44;;;;;;;;;;;17.20;63.20;;;;;;6275300;22;19918;-76
2023/07/14 01:37:10;;;;;;;;;;;17.20;63.20;;;;;;6274837;22;19986;-75
2023/07/14 01:39:36;;;;;;;;;;;17.10;63.20;;;;;;6275138;22;19911;-75
2023/07/14 01:42:01;;;;;;;;;;;17.10;63.20;;;;;;6274512;22;19953;-74
2023/07/14 01:44:27;;;;;;;;;;;17.00;63.10;;;;;;6274616;22;20345;-72
2023/07/14 01:46:54;;;;;;;;;;;17.00;63.10;;;;;;6274784;22;20275;-74
2023/07/14 01:49:25;;;;;;;;;;;17.00;63.30;;;;;;6275075;22;19911;-75
2023/07/14 01:51:51;;;;;;;;;;;17.00;63.20;;;;;;6274598;22;19911;-74
2023/07/14 01:54:37;;;;;;;;;;;17.00;63.10;;;;;;6275194;22;20309;-74
2023/07/14 01:57:05;;;;;;;;;;;17.00;63.20;;;;;;6274370;22;19938;-74
2023/07/14 01:59:33;;;;;;;;;;;16.90;63.30;;;;;;6275274;22;19973;-74
2023/07/14 02:01:59;;;;;;;;;;;16.90;63.40;;;;;;6247590;22;20245;-75
2023/07/14 02:04:26;;;;;;;;;;;16.90;63.50;;;;;;6275424;22;20028;-75
2023/07/14 02:06:52;;;;;;;;;;;16.90;63.50;;;;;;6247357;22;20348;-75
2023/07/14 02:09:19;;;;;;;;;;;16.90;63.50;;;;;;6274938;22;19911;-75
2023/07/14 02:11:47;;;;;;;;;;;16.80;63.50;;;;;;6274292;22;20318;-72
2023/07/14 02:14:16;;;;;;;;;;;16.80;63.40;;;;;;6274961;22;20317;-73
2023/07/14 02:16:42;;;;;;;;;;;16.80;63.60;;;;;;6274380;22;19991;-74
2023/07/14 02:19:13;;;;;;;;;;;16.80;63.70;;;;;;6247610;22;19915;-73
2023/07/14 02:21:41;;;;;;;;;;;16.80;63.70;;;;;;6274412;22;20283;-73
2023/07/14 02:24:09;;;;;;;;;;;16.80;63.70;;;;;;6274747;22;19961;-73
2023/07/14 02:26:36;;;;;;;;;;;16.80;63.60;;;;;;6274799;22;19907;-73
2023/07/14 02:29:05;;;;;;;;;;;16.80;63.70;;;;;;6275192;22;19919;-75
2023/07/14 02:31:38;;;;;;;;;;;16.80;64.00;;;;;;6276074;22;19908;-73
2023/07/14 02:34:04;;;;;;;;;;;16.70;64.00;;;;;;6277129;22;19965;-73
2023/07/14 02:36:37;;;;;;;;;;;16.80;64.10;;;;;;6276340;22;19903;-72
2023/07/14 02:39:04;;;;;;;;;;;16.80;64.20;;;;;;6277041;22;19973;-75
2023/07/14 02:41:32;;;;;;;;;;;16.80;64.30;;;;;;6276293;22;19908;-74
2023/07/14 02:44:00;;;;;;;;;;;16.80;64.20;;;;;;6276797;22;19912;-74
2023/07/14 02:46:31;;;;;;;;;;;16.80;64.20;;;;;;6276222;22;20262;-75
2023/07/14 02:48:56;;;;;;;;;;;16.80;64.20;;;;;;6276617;22;19939;-75
2023/07/14 02:51:22;;;;;;;;;;;16.80;64.30;;;;;;6276448;22;19903;-75
2023/07/14 02:53:47;;;;;;;;;;;16.90;64.40;;;;;;6276567;22;20024;-74
2023/07/14 02:56:13;;;;;;;;;;;17.00;64.60;;;;;;6276114;22;19911;-75
2023/07/14 02:58:38;;;;;;;;;;;17.00;64.50;;;;;;6276626;22;19923;-75
2023/07/14 03:01:05;;;;;;;;;;;17.10;64.50;;;;;;6276096;22;20253;-75
2023/07/14 03:03:33;;;;;;;;;;;17.20;64.50;;;;;;6276327;22;19938;-75
2023/07/14 03:05:59;;;;;;;;;;;17.30;64.60;;;;;;6249139;22;19909;-75
2023/07/14 03:08:26;;;;;;;;;;;17.30;64.60;;;;;;6276309;22;20302;-75
2023/07/14 03:10:55;;;;;;;;;;;17.40;64.70;;;;;;6276115;22;20325;-75
2023/07/14 03:13:21;;;;;;;;;;;17.50;64.70;;;;;;6276581;22;19934;-75
2023/07/14 03:15:47;;;;;;;;;;;17.50;64.80;;;;;;6276109;22;20336;-74
2023/07/14 03:18:14;;;;;;;;;;;17.50;64.80;;;;;;6276421;22;19989;-75
2023/07/14 03:20:40;;;;;;;;;;;17.60;64.70;;;;;;6275904;22;19964;-76
2023/07/14 03:23:05;;;;;;;;;;;17.70;64.70;;;;;;6275973;22;19942;-74
2023/07/14 03:25:33;;;;;;;;;;;17.70;64.70;;;;;;6275927;22;19937;-75
2023/07/14 03:28:01;;;;;;;;;;;17.80;64.70;;;;;;6275777;22;19908;-73
2023/07/14 03:30:27;;;;;;;;;;;17.80;64.60;;;;;;6276073;22;20005;-73
2023/07/14 03:32:52;;;;;;;;;;;17.80;64.70;;;;;;6275731;22;19935;-72
2023/07/14 03:35:20;;;;;;;;;;;17.90;64.70;;;;;;6276229;22;20321;-73
2023/07/14 03:37:46;;;;;;;;;;;18.00;64.70;;;;;;6276051;22;19954;-75
2023/07/14 03:40:12;;;;;;;;;;;18.10;64.80;;;;;;6275949;22;19996;-73
2023/07/14 03:42:38;;;;;;;;;;;18.20;64.80;;;;;;6275417;22;20298;-73
2023/07/14 03:45:05;;;;;;;;;;;18.30;64.80;;;;;;6275693;22;19957;-73
2023/07/14 03:47:31;;;;;;;;;;;18.40;64.80;;;;;;6275434;22;19931;-73
2023/07/14 03:49:57;;;;;;;;;;;18.50;64.80;;;;;;6275536;22;19915;-73
2023/07/14 03:52:22;;;;;;;;;;;18.50;64.80;;;;;;6276046;22;19903;-74
2023/07/14 03:54:48;;;;;;;;;;;18.70;64.80;;;;;;6276272;22;19927;-73
2023/07/14 03:57:13;;;;;;;;;;;18.70;64.70;;;;;;6275535;22;19931;-73
2023/07/14 03:59:39;;;;;;;;;;;18.80;64.60;;;;;;6276144;22;20371;-74
2023/07/14 04:02:04;;;;;;;;;;;18.80;64.50;;;;;;6275457;22;19911;-74
2023/07/14 04:04:30;;;;;;;;;;;18.90;64.50;;;;;;6275530;22;19912;-73
2023/07/14 04:06:57;;;;;;;;;;;18.90;64.30;;;;;;6275778;22;19903;-73
2023/07/14 04:09:22;;;;;;;;;;;18.80;64.30;;;;;;6276237;22;20244;-74
2023/07/14 04:11:48;;;;;;;;;;;18.80;64.30;;;;;;6275499;22;19908;-75
2023/07/14 04:14:14;;;;;;;;;;;18.80;64.30;;;;;;6275441;22;19942;-75
2023/07/14 04:16:39;;;;;;;;;;;18.80;64.40;;;;;;6275513;22;19956;-75
2023/07/14 04:19:05;;;;;;;;;;;18.80;64.40;;;;;;6275896;22;19981;-75
2023/07/14 04:21:31;;;;;;;;;;;18.90;64.40;;;;;;6275326;22;19934;-71
2023/07/14 04:23:57;;;;;;;;;;;18.90;64.50;;;;;;6275860;22;19908;-72
2023/07/14 04:26:23;;;;;;;;;;;19.00;64.50;;;;;;6275493;22;19961;-73
2023/07/14 04:28:49;;;;;;;;;;;19.00;64.50;;;;;;6275247;22;19912;-73
2023/07/14 04:31:15;;;;;;;;;;;19.10;64.40;;;;;;6275330;22;19919;-72
2023/07/14 04:33:44;;;;;;;;;;;19.10;64.50;;;;;;6275458;22;20328;-73
2023/07/14 04:36:10;;;;;;;;;;;19.20;64.50;;;;;;6275402;22;19953;-72
2023/07/14 04:38:35;;;;;;;;;;;19.20;64.40;;;;;;6275184;22;19911;-72
2023/07/14 04:41:01;;;;;;;;;;;19.20;64.50;;;;;;6275356;22;20318;-72
2023/07/14 04:43:26;;;;;;;;;;;19.20;64.50;;;;;;6275396;22;20006;-73
2023/07/14 04:45:51;;;;;;;;;;;19.30;64.50;;;;;;6275103;22;19914;-72
2023/07/14 04:48:18;;;;;;;;;;;19.30;64.60;;;;;;6275188;22;19907;-73
2023/07/14 04:50:45;;;;;;;;;;;19.40;64.60;;;;;;6275102;22;20296;-73
2023/07/14 04:53:11;;;;;;;;;;;19.40;64.60;;;;;;6274903;22;19907;-73
2023/07/14 04:55:36;;;;;;;;;;;19.40;64.60;;;;;;6275069;22;19957;-71
2023/07/14 04:58:02;;;;;;;;;;;19.50;64.70;;;;;;6248226;22;19911;-73
2023/07/14 05:00:28;;;;;;;;;;;19.60;64.90;;;;;;6275177;22;19911;-74
2023/07/14 05:02:53;;;;;;;;;;;19.80;64.90;;;;;;6274891;22;19987;-72
2023/07/14 05:05:20;;;;;;;;;;;19.80;65.00;;;;;;6274958;22;19903;-73
2023/07/14 05:07:48;;;;;;;;;;;20.00;65.20;;;;;;6274851;22;19992;-72
2023/07/14 05:10:13;;;;;;;;;;;20.20;65.50;;;;;;6274973;22;19910;-73
2023/07/14 05:12:39;;;;;;;;;;;20.40;66.00;;;;;;6275428;22;19907;-72
2023/07/14 05:15:06;;;;;;;;;;;20.80;67.00;;;;;;6275278;22;19907;-73
2023/07/14 05:17:34;;;;;;;;;;;21.50;67.90;;;;;;6274707;22;20282;-73
2023/07/14 05:19:59;;;;;;;;;;;22.20;68.30;;;;;;6274893;22;19908;-73
2023/07/14 05:22:25;;;;;;;;;;;22.80;67.90;;;;;;6274795;22;19957;-73
2023/07/14 05:24:50;;;;;;;;;;;23.40;67.20;;;;;;6275205;22;19990;-73
2023/07/14 05:27:16;;;;;;;;;;;23.90;66.70;;;;;;6272635;22;20331;-74
2023/07/14 05:29:41;;;;;;;;;;;24.50;65.90;;;;;;6273102;22;19980;-73
2023/07/14 05:32:07;;;;;;;;;;;25.00;65.10;;;;;;6274223;22;20367;-74
2023/07/14 05:34:32;;;;;;;;;;;25.40;64.50;;;;;;6274871;22;19912;-74
2023/07/14 05:36:58;;;;;;;;;;;25.80;63.70;;;;;;6271851;22;19996;-74
2023/07/14 05:39:23;;;;;;;;;;;26.20;63.10;;;;;;6273413;22;19934;-72
2023/07/14 05:41:49;;;;;;;;;;;26.60;62.50;;;;;;6273657;22;19907;-74
2023/07/14 05:44:14;;;;;;;;;;;27.00;61.70;;;;;;6274433;22;19968;-75
2023/07/14 05:46:40;;;;;;;;;;;27.40;61.20;;;;;;6274455;22;19949;-74
2023/07/14 05:49:05;;;;;;;;;;;27.80;60.80;;;;;;6275002;22;19995;-74
2023/07/14 05:51:31;;;;;;;;;;;28.20;58.90;;;;;;6274149;22;19910;-74
2023/07/14 05:53:56;;;;;;;;;;;28.60;57.40;;;;;;6275126;22;19912;-74
2023/07/14 05:56:22;;;;;;;;;;;28.90;55.50;;;;;;6273380;22;19912;-75
2023/07/14 05:58:47;;;;;;;;;;;29.20;55.60;;;;;;6274410;22;19934;-74
2023/07/14 06:01:13;;;;;;;;;;;29.50;54.60;;;;;;6274503;22;19907;-74
2023/07/14 06:03:38;;;;;;;;;;;29.80;53.80;;;;;;6274492;22;19911;-75
2023/07/14 06:06:04;;;;;;;;;;;30.10;53.30;;;;;;6276790;22;19913;-75
2023/07/14 06:08:30;;;;;;;;;;;30.50;51.80;;;;;;6276609;22;20317;-74
2023/07/14 06:10:55;;;;;;;;;;;30.70;50.80;;;;;;6276533;22;19903;-73
2023/07/14 06:13:21;;;;;;;;;;;31.00;50.30;;;;;;6276656;22;19911;-74
2023/07/14 06:15:48;;;;;;;;;;;31.30;49.80;;;;;;6275857;22;19949;-74
2023/07/14 06:18:13;;;;;;;;;;;31.50;49.10;;;;;;6277012;22;19911;-75
2023/07/14 06:20:39;;;;;;;;;;;31.80;47.30;;;;;;6275582;22;19903;-75
2023/07/14 06:23:04;;;;;;;;;;;31.90;47.00;;;;;;6276474;22;19915;-74
2023/07/14 06:25:30;;;;;;;;;;;32.20;46.20;;;;;;6275635;22;19915;-74
2023/07/14 06:28:16;;;;;;;;;;;32.60;45.50;;;;;;6249225;22;19918;-74
2023/07/14 06:30:41;;;;;;;;;;;32.90;45.10;;;;;;6188079;22;19907;-74
2023/07/14 06:33:09;;;;;;;;;;;33.30;43.60;;;;;;6276216;22;19918;-74
2023/07/14 06:35:34;;;;;;;;;;;33.50;43.20;;;;;;6275422;22;20404;-74
2023/07/14 06:38:00;;;;;;;;;;;33.80;42.20;;;;;;6276386;22;19938;-74
2023/07/14 06:40:25;;;;;;;;;;;34.20;42.00;;;;;;6275672;22;19908;-75
2023/07/14 06:42:50;;;;;;;;;;;34.50;40.50;;;;;;6276192;22;20391;-75
2023/07/14 06:45:16;;;;;;;;;;;34.70;39.30;;;;;;6275944;22;19903;-73
2023/07/14 06:47:41;;;;;;;;;;;34.90;38.50;;;;;;6275395;22;19911;-75
2023/07/14 06:50:07;;;;;;;;;;;35.10;37.70;;;;;;6276434;22;19978;-72
2023/07/14 06:52:35;;;;;;;;;;;35.30;37.60;;;;;;6275395;22;19904;-74
2023/07/14 06:55:00;;;;;;;;;;;35.50;36.30;;;;;;6249074;22;20352;-75
2023/07/14 06:57:26;;;;;;;;;;;35.70;36.10;;;;;;6275314;22;19915;-74
2023/07/14 06:59:52;;;;;;;;;;;35.70;35.50;;;;;;6276720;22;19911;-73
2023/07/14 07:02:18;;;;;;;;;;;35.90;36.00;;;;;;6249162;22;19914;-74
2023/07/14 07:04:43;;;;;;;;;;;36.20;35.80;;;;;;6275888;22;19911;-74
2023/07/14 07:07:09;;;;;;;;;;;36.50;34.90;;;;;;6275482;22;20313;-74
2023/07/14 07:09:34;;;;;;;;;;;36.60;34.50;;;;;;6276759;22;19915;-76
2023/07/14 07:12:01;;;;;;;;;;;36.80;34.50;;;;;;6275409;22;19903;-74
2023/07/14 07:14:27;;;;;;;;;;;37.10;33.70;;;;;;6275422;22;20260;-73
2023/07/14 07:16:52;;;;;;;;;;;37.40;33.40;;;;;;6274501;22;20273;-72
2023/07/14 07:19:18;;;;;;;;;;;37.70;32.70;;;;;;6275658;22;19915;-74
2023/07/14 07:21:44;;;;;;;;;;;38.00;32.10;;;;;;6248806;22;19922;-74
2023/07/14 07:24:09;;;;;;;;;;;38.30;31.90;;;;;;6275724;22;20272;-74
2023/07/14 07:26:35;;;;;;;;;;;38.60;30.40;;;;;;6276068;22;19907;-73
2023/07/14 07:29:01;;;;;;;;;;;38.90;30.10;;;;;;6274882;22;19946;-74
2023/07/14 07:31:28;;;;;;;;;;;39.10;28.70;;;;;;6276288;22;20242;-74
2023/07/14 07:33:53;;;;;;;;;;;39.30;28.60;;;;;;6276468;22;19919;-74
2023/07/14 07:36:19;;;;;;;;;;;39.50;27.40;;;;;;6275828;22;20229;-74
2023/07/14 07:38:46;;;;;;;;;;;39.70;27.30;;;;;;6275213;22;19938;-74
2023/07/14 07:41:15;;;;;;;;;;;39.80;26.30;;;;;;6275711;22;19907;-75
2023/07/14 07:43:41;;;;;;;;;;;39.90;25.80;;;;;;6276029;22;19915;-74
2023/07/14 07:46:08;;;;;;;;;;;40.00;25.90;;;;;;6275215;22;20190;-73
2023/07/14 07:48:34;;;;;;;;;;;40.20;25.80;;;;;;6248560;22;20329;-73
2023/07/14 07:51:00;;;;;;;;;;;40.50;25.20;;;;;;6275377;22;19937;-73
2023/07/14 07:53:25;;;;;;;;;;;40.60;24.70;;;;;;6248415;22;20151;-72
2023/07/14 07:55:51;;;;;;;;;;;40.70;24.40;;;;;;6275317;22;20324;-71
2023/07/14 07:58:17;;;;;;;;;;;41.00;24.30;;;;;;6275396;22;19911;-73
2023/07/14 08:00:43;;;;;;;;;;;41.30;23.80;;;;;;6275546;22;19911;-73
2023/07/14 08:03:08;;;;;;;;;;;41.30;22.60;;;;;;6275104;22;19912;-73
2023/07/14 08:05:35;;;;;;;;;;;41.30;21.90;;;;;;6274837;22;19915;-74
2023/07/14 08:08:00;;;;;;;;;;;41.20;21.40;;;;;;6274545;22;20291;-74
2023/07/14 08:10:26;;;;;;;;;;;41.10;21.20;;;;;;6275751;22;19903;-74
2023/07/14 08:12:52;;;;;;;;;;;41.00;21.20;;;;;;6274887;22;19986;-73
2023/07/14 08:15:18;;;;;;;;;;;40.90;21.20;;;;;;6275171;22;19965;-74
2023/07/14 08:17:54;;;;;;;;;;;40.80;21.30;;;;;;6275017;22;19903;-74
2023/07/14 08:20:19;;;;;;;;;;;40.90;21.10;;;;;;6275539;22;19953;-74
2023/07/14 08:22:44;;;;;;;;;;;40.90;21.20;;;;;;6274489;22;19907;-74
2023/07/14 08:25:10;;;;;;;;;;;40.90;21.20;;;;;;6275227;22;19903;-74
2023/07/14 08:27:36;;;;;;;;;;;40.80;21.00;;;;;;6275267;22;19903;-74
2023/07/14 08:30:01;;;;;;;;;;;40.80;21.30;;;;;;6274904;22;19986;-73
2023/07/14 08:32:27;;;;;;;;;;;40.70;21.20;;;;;;6275493;22;19957;-74
2023/07/14 08:34:52;;;;;;;;;;;40.60;21.20;;;;;;6274894;22;19911;-74
2023/07/14 08:37:18;;;;;;;;;;;40.70;21.30;;;;;;6274328;22;19953;-74
2023/07/14 08:39:44;;;;;;;;;;;40.70;21.00;;;;;;6275158;22;19918;-74
2023/07/14 08:42:20;;;;;;;;;;;40.70;21.30;;;;;;6274567;22;19914;-74
2023/07/14 08:44:46;;;;;;;;;;;40.80;21.50;;;;;;6247798;22;19911;-74
2023/07/14 08:47:20;;;;;;;;;;;41.20;21.30;;;;;;6274784;22;19903;-73
2023/07/14 08:49:57;;;;;;;;;;;41.30;20.90;;;;;;6275344;22;19911;-73
2023/07/14 08:52:26;;;;;;;;;;;41.30;20.90;;;;;;6275035;22;19986;-73
2023/07/14 08:55:02;;;;;;;;;;;41.30;21.10;;;;;;6275850;22;20428;-74
2023/07/14 08:57:28;;;;;;;;;;;41.40;21.10;;;;;;6274616;22;20345;-73
2023/07/14 08:59:55;;;;;;;;;;;41.70;21.10;;;;;;6274659;22;19911;-73
2023/07/14 09:02:21;;;;;;;;;;;41.90;20.70;;;;;;6274677;22;19917;-75
2023/07/14 09:04:51;;;;;;;;;;;42.00;20.60;;;;;;6275719;22;20339;-73
2023/07/14 09:07:17;;;;;;;;;;;42.10;20.70;;;;;;6274333;22;19957;-73
2023/07/14 09:09:43;;;;;;;;;;;42.20;20.30;;;;;;6275661;22;20318;-73
2023/07/14 09:12:36;;;;;;;;;;;42.10;20.10;;;;;;6274365;22;19915;-73
2023/07/14 09:15:03;;;;;;;;;;;42.10;20.20;;;;;;6230037;22;19918;-74
2023/07/14 09:17:42;;;;;;;;;;;42.10;20.00;;;;;;6273832;22;19907;-73
2023/07/14 09:20:23;;;;;;;;;;;42.10;20.10;;;;;;6274966;22;19961;-74
2023/07/14 09:22:57;;;;;;;;;;;42.20;20.40;;;;;;6247646;22;20026;-74
2023/07/14 09:25:25;;;;;;;;;;;42.30;20.50;;;;;;6274567;22;19907;-74
2023/07/14 09:27:51;;;;;;;;;;;42.50;20.40;;;;;;6273962;22;19923;-74
2023/07/14 09:30:19;;;;;;;;;;;42.80;20.30;;;;;;6274784;22;19953;-74
2023/07/14 09:32:49;;;;;;;;;;;43.00;19.80;;;;;;6274349;22;20284;-73
2023/07/14 09:35:18;;;;;;;;;;;43.00;19.60;;;;;;6273370;22;19914;-73
2023/07/14 09:37:52;;;;;;;;;;;43.00;19.40;;;;;;6273224;22;19957;-73
2023/07/14 09:40:21;;;;;;;;;;;43.10;19.10;;;;;;6246913;22;19903;-74
2023/07/14 09:42:53;;;;;;;;;;;43.00;19.00;;;;;;6274384;22;19961;-73
2023/07/14 09:45:23;;;;;;;;;;;43.00;19.00;;;;;;6274836;22;19990;-73
2023/07/14 09:47:56;;;;;;;;;;;42.90;18.90;;;;;;6274667;22;20391;-73
2023/07/14 09:50:23;;;;;;;;;;;42.90;19.30;;;;;;6275035;22;20325;-74
2023/07/14 09:52:51;;;;;;;;;;;43.10;19.60;;;;;;6274027;22;19907;-74
2023/07/14 09:55:19;;;;;;;;;;;43.20;19.20;;;;;;6274073;22;19934;-74
2023/07/14 09:57:46;;;;;;;;;;;43.40;19.30;;;;;;6274816;22;19935;-73
2023/07/14 10:00:34;;;;;;;;;;;43.70;19.10;;;;;;6274771;22;20317;-73
2023/07/14 10:03:06;;;;;;;;;;;43.80;18.60;;;;;;6273686;22;20288;-75
2023/07/14 10:05:34;;;;;;;;;;;43.80;18.30;;;;;;6274678;22;20341;-74
2023/07/14 10:08:02;;;;;;;;;;;43.80;18.40;;;;;;6247830;22;20317;-75
2023/07/14 10:10:28;;;;;;;;;;;43.70;18.20;;;;;;6275025;22;20413;-74
2023/07/14 10:12:56;;;;;;;;;;;43.70;18.10;;;;;;6274803;22;19989;-74
2023/07/14 10:15:22;;;;;;;;;;;43.60;18.00;;;;;;6274767;22;19911;-73
2023/07/14 10:17:51;;;;;;;;;;;43.50;17.80;;;;;;6275343;22;19904;-73
2023/07/14 10:20:18;;;;;;;;;;;43.30;18.30;;;;;;6275022;22;20321;-73
2023/07/14 10:22:43;;;;;;;;;;;43.30;18.20;;;;;;6275033;22;19989;-73
2023/07/14 10:25:15;;;;;;;;;;;43.10;17.90;;;;;;6275153;22;19941;-74
2023/07/14 10:27:40;;;;;;;;;;;42.80;18.10;;;;;;6248034;22;20352;-74
2023/07/14 10:30:06;;;;;;;;;;;42.70;18.50;;;;;;6274572;22;19904;-74
2023/07/14 10:32:31;;;;;;;;;;;42.70;18.90;;;;;;6246774;22;19911;-74
2023/07/14 10:34:57;;;;;;;;;;;42.90;18.70;;;;;;6274519;22;19903;-74
2023/07/14 10:37:26;;;;;;;;;;;42.90;18.20;;;;;;6274725;22;19986;-75
2023/07/14 10:39:54;;;;;;;;;;;42.90;18.00;;;;;;6274738;22;20237;-74
2023/07/14 10:42:21;;;;;;;;;;;42.80;17.80;;;;;;6246485;22;19933;-74
2023/07/14 10:44:47;;;;;;;;;;;42.70;17.90;;;;;;6274897;22;20304;-74
2023/07/14 10:47:15;;;;;;;;;;;42.50;18.20;;;;;;6274351;22;19910;-74
2023/07/14 10:49:43;;;;;;;;;;;42.30;18.30;;;;;;6274608;22;19911;-76
2023/07/14 10:52:17;;;;;;;;;;;42.20;18.70;;;;;;6248429;22;19926;-73
2023/07/14 10:54:43;;;;;;;;;;;42.30;18.80;;;;;;6276914;22;20345;-74
2023/07/14 10:57:14;;;;;;;;;;;42.30;19.10;;;;;;6275675;22;19915;-74
2023/07/14 10:59:50;;;;;;;;;;;42.30;18.80;;;;;;6276567;22;19922;-74
2023/07/14 11:02:19;;;;;;;;;;;42.10;18.30;;;;;;6276510;22;19918;-74
2023/07/14 11:04:58;;;;;;;;;;;41.80;18.80;;;;;;6277127;22;19989;-74
2023/07/14 11:07:31;;;;;;;;;;;41.50;19.00;;;;;;6276573;22;20321;-75
2023/07/14 11:09:57;;;;;;;;;;;41.30;19.30;;;;;;6276666;22;19921;-74
2023/07/14 11:12:31;;;;;;;;;;;41.30;19.40;;;;;;6276741;22;19931;-74
2023/07/14 11:15:04;;;;;;;;;;;41.40;19.40;;;;;;6275286;22;19972;-76
2023/07/14 11:17:35;;;;;;;;;;;41.40;19.30;;;;;;6275057;22;19907;-76
2023/07/14 11:20:12;;;;;;;;;;;41.30;19.10;;;;;;6276261;22;20353;-74
2023/07/14 11:22:46;;;;;;;;;;;41.30;19.00;;;;;;6277069;22;19930;-74
2023/07/14 11:25:18;;;;;;;;;;;41.30;19.20;;;;;;6274886;22;19942;-74
2023/07/14 11:27:47;;;;;;;;;;;41.30;19.50;;;;;;6276049;22;19950;-74
2023/07/14 11:30:15;;;;;;;;;;;41.30;19.30;;;;;;6275622;22;20280;-75
2023/07/14 11:32:53;;;;;;;;;;;41.00;19.30;;;;;;6276069;22;19903;-74
2023/07/14 11:35:30;;;;;;;;;;;40.80;19.70;;;;;;6275553;22;20276;-74
2023/07/14 11:37:59;;;;;;;;;;;40.70;19.70;;;;;;6275615;22;19911;-74
2023/07/14 11:40:25;;;;;;;;;;;40.70;19.80;;;;;;6275929;22;19907;-74
2023/07/14 11:43:00;;;;;;;;;;;40.50;20.00;;;;;;6274781;22;19930;-75
2023/07/14 11:45:32;;;;;;;;;;;40.40;20.10;;;;;;6275565;22;19957;-73
2023/07/14 11:47:58;;;;;;;;;;;40.60;19.80;;;;;;6276595;22;20325;-74
2023/07/14 11:50:25;;;;;;;;;;;40.30;19.60;;;;;;6276165;22;19904;-76
2023/07/14 11:52:58;;;;;;;;;;;40.00;20.00;;;;;;6276166;22;20057;-74
2023/07/14 11:55:25;;;;;;;;;;;39.80;20.10;;;;;;6276222;22;19910;-74
2023/07/14 11:57:51;;;;;;;;;;;39.40;20.30;;;;;;6275663;22;20333;-74
2023/07/14 12:00:24;;;;;;;;;;;39.20;20.50;;;;;;6275361;22;19904;-74
2023/07/14 12:02:58;;;;;;;;;;;39.00;20.80;;;;;;6275616;22;20272;-74
2023/07/14 12:05:24;;;;;;;;;;;38.80;21.10;;;;;;6275520;22;19934;-76
2023/07/14 12:08:01;;;;;;;;;;;38.70;21.20;;;;;;6275631;22;19909;-75
2023/07/14 12:10:40;;;;;;;;;;;38.70;21.30;;;;;;6275529;22;20348;-75
2023/07/14 12:13:18;;;;;;;;;;;38.50;21.10;;;;;;6247561;22;19922;-74
2023/07/14 12:15:46;;;;;;;;;;;38.30;21.40;;;;;;6275513;22;20322;-75
2023/07/14 12:18:17;;;;;;;;;;;38.10;21.60;;;;;;6275046;22;20345;-76
2023/07/14 12:20:43;;;;;;;;;;;37.90;21.70;;;;;;6275457;22;19903;-76
2023/07/14 12:23:38;;;;;;;;;;;37.70;21.90;;;;;;6274678;22;19912;-75
2023/07/14 12:26:10;;;;;;;;;;;37.80;22.00;;;;;;6249428;22;19929;-75
2023/07/14 12:28:37;;;;;;;;;;;38.00;22.00;;;;;;6275307;22;20021;-75
2023/07/14 12:31:12;;;;;;;;;;;38.10;21.90;;;;;;6274374;22;19903;-76
2023/07/14 12:33:39;;;;;;;;;;;38.20;21.80;;;;;;6275638;22;19918;-76
2023/07/14 12:36:04;;;;;;;;;;;38.30;21.90;;;;;;6274443;22;20325;-76
2023/07/14 12:38:30;;;;;;;;;;;38.40;21.70;;;;;;6274861;22;19919;-75
2023/07/14 12:40:56;;;;;;;;;;;38.70;21.70;;;;;;6273977;22;19907;-75
2023/07/14 12:43:33;;;;;;;;;;;38.90;21.20;;;;;;6247492;22;19911;-76
2023/07/14 12:45:59;;;;;;;;;;;38.90;20.90;;;;;;6247543;22;19904;-76
2023/07/14 12:48:27;;;;;;;;;;;38.90;21.00;;;;;;6274764;22;20424;-76
2023/07/14 12:50:53;;;;;;;;;;;38.90;21.00;;;;;;6273978;22;19903;-76
2023/07/14 12:53:19;;;;;;;;;;;39.00;21.10;;;;;;6275057;22;19949;-75
2023/07/14 12:55:45;;;;;;;;;;;39.20;21.20;;;;;;6274799;22;19915;-74
2023/07/14 12:58:17;;;;;;;;;;;39.50;21.10;;;;;;6274207;22;19912;-75
2023/07/14 13:00:43;;;;;;;;;;;39.80;21.00;;;;;;6275194;22;19903;-75
2023/07/14 13:03:10;;;;;;;;;;;40.00;20.60;;;;;;6274078;22;19911;-75
2023/07/14 13:05:37;;;;;;;;;;;40.10;20.00;;;;;;6247920;22;19907;-76
2023/07/14 13:08:04;;;;;;;;;;;39.90;19.90;;;;;;6274592;22;20317;-76
2023/07/14 13:10:36;;;;;;;;;;;39.80;20.20;;;;;;6274839;22;19903;-75
2023/07/14 13:13:05;;;;;;;;;;;40.00;20.10;;;;;;6274739;22;19918;-76
2023/07/14 13:15:31;;;;;;;;;;;40.00;19.90;;;;;;6274013;22;19907;-76
2023/07/14 13:17:59;;;;;;;;;;;40.00;20.00;;;;;;6275015;22;19995;-75
2023/07/14 13:20:26;;;;;;;;;;;39.90;19.90;;;;;;6273852;22;19952;-75
2023/07/14 13:23:10;;;;;;;;;;;39.70;19.90;;;;;;6274693;22;19916;-75
2023/07/14 13:25:43;;;;;;;;;;;39.70;19.70;;;;;;6274714;22;19903;-75
2023/07/14 13:28:27;;;;;;;;;;;40.10;20.00;;;;;;6273922;22;19911;-76
2023/07/14 13:30:53;;;;;;;;;;;40.40;19.50;;;;;;6274787;22;20383;-76
2023/07/14 13:33:22;;;;;;;;;;;40.50;19.60;;;;;;6274372;22;19911;-75
2023/07/14 13:35:54;;;;;;;;;;;40.70;19.40;;;;;;6246898;22;19907;-76
2023/07/14 13:38:19;;;;;;;;;;;40.80;19.40;;;;;;6274665;22;20325;-76
2023/07/14 13:40:49;;;;;;;;;;;40.90;19.00;;;;;;6274403;22;19914;-76
2023/07/14 13:43:20;;;;;;;;;;;40.80;18.60;;;;;;6274365;22;20325;-77
2023/07/14 13:46:02;;;;;;;;;;;40.30;18.70;;;;;;6273619;22;20245;-74
2023/07/14 13:48:33;;;;;;;;;;;39.80;19.10;;;;;;6274633;22;19907;-77
2023/07/14 13:50:59;;;;;;;;;;;39.30;19.10;;;;;;6247159;22;19917;-75
2023/07/14 13:53:25;;;;;;;;;;;38.90;19.50;;;;;;6274529;22;19960;-74
2023/07/14 13:55:50;;;;;;;;;;;38.70;19.80;;;;;;6274640;22;19915;-76
2023/07/14 13:58:18;;;;;;;;;;;38.90;20.00;;;;;;6273585;22;20339;-76
2023/07/14 14:00:44;;;;;;;;;;;39.10;19.90;;;;;;6274406;22;19922;-77
2023/07/14 14:03:10;;;;;;;;;;;39.30;19.90;;;;;;6246868;22;19911;-76
2023/07/14 14:05:37;;;;;;;;;;;39.60;19.80;;;;;;6273794;22;20317;-76
2023/07/14 14:08:03;;;;;;;;;;;39.80;19.60;;;;;;6274210;22;19911;-77
2023/07/14 14:10:28;;;;;;;;;;;39.80;19.40;;;;;;6274294;22;19934;-76
2023/07/14 14:12:55;;;;;;;;;;;40.00;19.40;;;;;;6273584;22;19907;-77
2023/07/14 14:15:27;;;;;;;;;;;40.00;19.40;;;;;;6273832;22;19907;-77
2023/07/14 14:17:56;;;;;;;;;;;39.80;19.30;;;;;;6275025;22;20301;-77
2023/07/14 14:20:24;;;;;;;;;;;39.50;19.60;;;;;;6274506;22;20338;-76